Time;durP1;ratioP1;P1;durP2;ratioP2;P2;SDS_P1;SDS_P2;PMS_P1;PMS_P2;Temp;Humidity;BMP_temperature;BMP_pressure;BME280_temperature;BME280_humidity;BME280_pressure;Samples;Min_cycle;Max_cycle;Signal;HPM_P1;HPM_P2
2023/12/02 00:02:15;;;;;;;964.47;870.80;;;0.00;99.90;;;;;;6210906;23;20107;-80
2023/12/02 00:04:41;;;;;;;970.88;877.75;;;-0.50;99.90;;;;;;6207695;23;20013;-80
2023/12/02 00:07:07;;;;;;;987.78;888.80;;;-0.20;99.90;;;;;;6211158;23;20024;-81
2023/12/02 00:09:34;;;;;;;960.30;867.95;;;-0.60;99.90;;;;;;6208716;23;20021;-81
2023/12/02 00:11:59;;;;;;;987.60;891.53;;;-0.10;99.90;;;;;;6208077;23;20024;-80
2023/12/02 00:14:25;;;;;;;936.58;849.15;;;0.10;99.90;;;;;;6211161;23;20024;-80
2023/12/02 00:16:51;;;;;;;846.45;774.25;;;-1.20;99.90;;;;;;6208759;23;20441;-80
2023/12/02 00:19:16;;;;;;;1021.25;916.90;;;-0.60;99.90;;;;;;6208552;23;20027;-80
2023/12/02 00:21:42;;;;;;;1010.58;906.60;;;-0.60;99.90;;;;;;6210189;23;20012;-81
2023/12/02 00:24:08;;;;;;;967.95;875.03;;;-0.90;99.90;;;;;;6211131;23;20337;-80
2023/12/02 00:26:33;;;;;;;1057.88;942.08;;;-0.80;99.90;;;;;;6210052;23;20012;-81
2023/12/02 00:28:59;;;;;;;979.45;883.15;;;-0.80;99.90;;;;;;6207339;23;20460;-81
2023/12/02 00:31:25;;;;;;;1013.22;911.90;;;-0.90;99.90;;;;;;6234564;23;20074;-80
2023/12/02 00:33:50;;;;;;;964.53;870.28;;;-1.20;99.90;;;;;;6207726;23;20021;-80
2023/12/02 00:36:16;;;;;;;1008.25;906.72;;;0.00;99.90;;;;;;6210671;23;20063;-81
2023/12/02 00:38:42;;;;;;;1035.20;925.60;;;-0.60;99.90;;;;;;6208340;23;20456;-81
2023/12/02 00:41:10;;;;;;;868.33;793.58;;;-0.60;99.90;;;;;;6207145;23;20020;-81
2023/12/02 00:43:36;;;;;;;804.53;739.97;;;-0.40;99.90;;;;;;6207196;23;20025;-80
2023/12/02 00:46:01;;;;;;;899.75;820.75;;;-1.20;99.90;;;;;;6210182;23;20444;-81
2023/12/02 00:48:27;;;;;;;1023.35;921.80;;;-0.30;99.90;;;;;;6208827;23;20028;-81
2023/12/02 00:50:53;;;;;;;1016.50;913.38;;;-1.20;99.90;;;;;;6208478;23;20020;-81
2023/12/02 00:53:19;;;;;;;959.15;869.10;;;0.10;99.90;;;;;;6207973;23;20048;-81
2023/12/02 00:55:45;;;;;;;1020.65;916.53;;;-0.60;99.90;;;;;;6207324;23;20069;-81
2023/12/02 00:58:10;;;;;;;1001.50;900.10;;;-0.10;99.90;;;;;;6207333;23;20024;-81
2023/12/02 01:00:36;;;;;;;854.30;784.60;;;-0.70;99.90;;;;;;6207990;23;20020;-81
2023/12/02 01:03:02;;;;;;;911.75;831.38;;;-0.60;99.90;;;;;;6207677;23;20025;-81
2023/12/02 01:05:27;;;;;;;1012.75;910.90;;;-1.10;99.90;;;;;;6207441;23;20103;-80
2023/12/02 01:07:53;;;;;;;1013.25;911.97;;;-0.20;99.90;;;;;;6207479;23;20047;-81
2023/12/02 01:10:19;;;;;;;952.42;863.65;;;-0.10;99.90;;;;;;6208425;23;20114;-81
2023/12/02 01:12:44;;;;;;;1014.85;914.53;;;-0.10;99.90;;;;;;6206690;23;20020;-81
2023/12/02 01:15:10;;;;;;;963.45;871.97;;;-0.10;99.90;;;;;;6209647;23;20074;-81
2023/12/02 01:17:36;;;;;;;1010.17;907.88;;;-0.10;99.90;;;;;;6207198;23;20021;-80
2023/12/02 01:20:03;;;;;;;873.10;798.55;;;-0.30;99.90;;;;;;6208784;23;20028;-81
2023/12/02 01:22:28;;;;;;;926.40;841.20;;;-1.20;99.90;;;;;;6208463;23;20017;-81
2023/12/02 01:24:54;;;;;;;1005.10;904.67;;;-0.30;99.90;;;;;;6208126;23;20445;-81
2023/12/02 01:27:20;;;;;;;972.40;879.25;;;-0.20;99.90;;;;;;6209823;22;20105;-81
2023/12/02 01:29:46;;;;;;;982.28;888.20;;;-0.20;99.90;;;;;;6269940;22;20027;-81
2023/12/02 01:32:11;;;;;;;968.10;876.00;;;-0.20;99.90;;;;;;6243449;22;20048;-81
2023/12/02 01:34:37;;;;;;;954.70;864.42;;;-1.10;99.90;;;;;;6243418;22;20317;-80
2023/12/02 01:37:03;;;;;;;1028.82;921.42;;;-1.20;99.90;;;;;;6242488;22;20329;-80
2023/12/02 01:39:29;;;;;;;1018.53;912.72;;;-1.20;99.90;;;;;;6243380;22;20024;-80
2023/12/02 01:41:55;;;;;;;1019.78;914.67;;;-1.00;99.90;;;;;;6242796;22;20015;-81
2023/12/02 01:44:20;;;;;;;969.75;876.33;;;-1.10;99.90;;;;;;6242373;22;20019;-80
2023/12/02 01:46:46;;;;;;;995.08;897.55;;;-0.10;99.90;;;;;;6218282;22;20059;-81
2023/12/02 01:49:12;;;;;;;1024.85;921.15;;;-0.30;99.90;;;;;;6242943;22;20050;-81
2023/12/02 01:51:38;;;;;;;865.75;792.63;;;-1.10;99.90;;;;;;6269569;22;20622;-81
2023/12/02 01:54:04;;;;;;;1010.05;908.42;;;-0.80;99.90;;;;;;6270285;22;20062;-85
2023/12/02 01:56:30;;;;;;;859.80;786.58;;;-1.20;99.90;;;;;;6218064;22;20043;-81
2023/12/02 01:58:57;;;;;;;950.05;862.30;;;-1.10;99.90;;;;;;6241507;22;20023;-81
2023/12/02 02:01:22;;;;;;;958.03;867.60;;;0.10;99.90;;;;;;6244767;22;20020;-81
2023/12/02 02:03:50;;;;;;;990.85;896.83;;;-1.10;99.90;;;;;;6272396;22;20120;-80
2023/12/02 02:06:15;;;;;;;882.40;806.38;;;-0.10;99.90;;;;;;6244332;22;20799;-81
2023/12/02 02:08:41;;;;;;;951.58;863.45;;;-0.10;99.90;;;;;;6245182;22;20066;-81
2023/12/02 02:11:07;;;;;;;985.78;892.53;;;-0.30;99.90;;;;;;6244513;22;20051;-80
2023/12/02 02:13:33;;;;;;;930.42;848.70;;;-0.40;99.90;;;;;;6244237;22;20095;-80
2023/12/02 02:15:58;;;;;;;990.58;897.08;;;-0.80;99.90;;;;;;6245554;22;20047;-80
2023/12/02 02:18:24;;;;;;;940.97;855.10;;;-1.00;99.90;;;;;;6243722;22;20886;-80
2023/12/02 02:20:52;;;;;;;1017.95;917.88;;;-1.20;99.90;;;;;;6245602;22;20058;-80
2023/12/02 02:23:20;;;;;;;1065.60;954.47;;;-1.30;99.90;;;;;;6272154;22;20324;-80
2023/12/02 02:25:47;;;;;;;946.58;862.35;;;-0.50;99.90;;;;;;6244197;22;20027;-80
2023/12/02 02:28:13;;;;;;;1045.70;942.28;;;-1.30;99.90;;;;;;6225954;23;20021;-80
2023/12/02 02:30:39;;;;;;;1042.72;936.47;;;-1.30;99.90;;;;;;6234906;23;20090;-81
2023/12/02 02:33:05;;;;;;;1012.63;915.30;;;-0.80;99.90;;;;;;6208677;23;20020;-80
2023/12/02 02:35:32;;;;;;;1004.60;907.60;;;-0.70;99.90;;;;;;6209223;23;20441;-81
2023/12/02 02:37:58;;;;;;;1045.70;939.42;;;-1.30;99.90;;;;;;6209722;23;20445;-80
2023/12/02 02:40:24;;;;;;;958.83;871.13;;;-1.30;99.90;;;;;;6210542;23;20087;-80
2023/12/02 02:42:49;;;;;;;1054.68;947.28;;;-1.00;99.90;;;;;;6208223;23;20430;-80
2023/12/02 02:45:16;;;;;;;943.38;858.60;;;-0.60;99.90;;;;;;6209983;23;20099;-80
2023/12/02 02:47:42;;;;;;;1037.75;936.55;;;-0.50;99.90;;;;;;6207391;23;20017;-80
2023/12/02 02:50:07;;;;;;;1045.40;939.00;;;-1.30;99.90;;;;;;6209777;23;20020;-80
2023/12/02 02:52:33;;;;;;;1000.40;904.42;;;-1.30;99.90;;;;;;6208680;23;20111;-81
2023/12/02 02:54:59;;;;;;;988.65;893.47;;;-0.80;99.90;;;;;;6210839;23;20028;-80
2023/12/02 02:57:25;;;;;;;1063.78;953.83;;;-0.40;99.90;;;;;;6208375;23;20494;-80
2023/12/02 02:59:51;;;;;;;1044.18;936.20;;;-1.10;99.90;;;;;;6209359;23;20039;-81
2023/12/02 03:02:17;;;;;;;1049.15;941.45;;;-0.90;99.90;;;;;;6208584;23;20353;-80
2023/12/02 03:04:43;;;;;;;1001.72;903.60;;;-0.90;99.90;;;;;;6210921;23;20070;-80
2023/12/02 03:07:08;;;;;;;1026.13;924.45;;;-1.40;99.90;;;;;;6209248;23;20520;-81
2023/12/02 03:09:34;;;;;;;1009.97;908.83;;;-1.40;99.90;;;;;;6210811;23;20096;-80
2023/12/02 03:12:00;;;;;;;1062.18;951.35;;;-1.50;99.90;;;;;;6208010;23;20162;-80
2023/12/02 03:14:25;;;;;;;982.03;888.13;;;-1.00;99.90;;;;;;6208154;23;20025;-81
2023/12/02 03:16:51;;;;;;;996.88;901.30;;;-1.00;99.90;;;;;;6210521;23;20192;-81
2023/12/02 03:19:18;;;;;;;1005.25;906.67;;;-0.40;99.90;;;;;;6209332;23;20103;-80
2023/12/02 03:21:44;;;;;;;1017.58;916.53;;;-0.70;99.90;;;;;;6210365;23;20063;-80
2023/12/02 03:24:10;;;;;;;952.38;865.13;;;-0.40;99.90;;;;;;6208855;23;20377;-80
2023/12/02 03:26:36;;;;;;;1000.95;906.45;;;-0.60;99.90;;;;;;6210641;23;20031;-80
2023/12/02 03:29:03;;;;;;;1063.30;955.88;;;-0.40;99.90;;;;;;6206428;23;20016;-81
2023/12/02 03:31:29;;;;;;;1026.40;925.88;;;-1.40;99.90;;;;;;6208777;23;20046;-80
2023/12/02 03:33:54;;;;;;;956.38;869.35;;;-1.20;99.90;;;;;;6209728;23;20093;-80
2023/12/02 03:36:20;;;;;;;929.13;846.20;;;-0.80;99.90;;;;;;6208422;23;20028;-80
2023/12/02 03:38:46;;;;;;;994.85;899.28;;;-0.90;99.90;;;;;;6210783;23;20024;-81
2023/12/02 03:41:12;;;;;;;947.42;860.83;;;-1.40;99.90;;;;;;6208845;23;20623;-81
2023/12/02 03:43:37;;;;;;;1037.20;931.38;;;-1.30;99.90;;;;;;6207013;23;20021;-80
2023/12/02 03:46:03;;;;;;;1018.15;918.13;;;-0.90;99.90;;;;;;6209062;23;20024;-80
2023/12/02 03:48:29;;;;;;;998.38;902.88;;;-1.50;99.90;;;;;;6208096;23;20020;-81
2023/12/02 03:50:55;;;;;;;930.28;844.70;;;-1.50;99.90;;;;;;6208150;23;20104;-80
2023/12/02 03:53:21;;;;;;;1020.63;915.92;;;-0.50;99.90;;;;;;6208539;23;20031;-80
2023/12/02 03:55:46;;;;;;;981.38;886.30;;;-1.00;99.90;;;;;;6210959;23;20012;-81
2023/12/02 03:58:12;;;;;;;972.65;878.33;;;-1.60;99.90;;;;;;6207247;23;20023;-81
2023/12/02 04:00:38;;;;;;;1035.22;929.80;;;-0.90;99.90;;;;;;6208453;23;20016;-81
2023/12/02 04:03:03;;;;;;;1039.35;934.72;;;-1.40;99.90;;;;;;6209030;23;20020;-81
2023/12/02 04:05:29;;;;;;;975.10;884.63;;;-1.60;99.90;;;;;;6207200;23;20027;-81
2023/12/02 04:07:55;;;;;;;970.58;878.10;;;-1.10;99.90;;;;;;6209017;23;20028;-81
2023/12/02 04:10:20;;;;;;;1058.55;946.03;;;-0.90;99.90;;;;;;6208984;23;20028;-81
2023/12/02 04:12:46;;;;;;;1050.82;944.85;;;-1.70;99.90;;;;;;6208221;23;20021;-80
2023/12/02 04:15:12;;;;;;;1117.32;977.97;;;-0.70;99.90;;;;;;6209196;23;20151;-81
2023/12/02 04:17:38;;;;;;;1088.70;965.25;;;-1.20;99.90;;;;;;6208450;23;20048;-80
2023/12/02 04:20:14;;;;;;;1106.47;973.50;;;-1.70;99.90;;;;;;6207920;23;20016;-81
2023/12/02 04:22:40;;;;;;;1168.13;981.95;;;-1.70;99.90;;;;;;6207786;23;20048;-80
2023/12/02 04:25:07;;;;;;;1039.75;933.65;;;-1.20;99.90;;;;;;6207475;23;20071;-81
2023/12/02 04:27:32;;;;;;;1097.15;976.08;;;-1.80;99.90;;;;;;6214783;22;20392;-80
2023/12/02 04:29:58;;;;;;;1144.00;997.50;;;-0.90;99.90;;;;;;6243982;22;20447;-80
2023/12/02 04:32:24;;;;;;;1093.38;978.22;;;-0.90;99.90;;;;;;6243013;22;20394;-81
2023/12/02 04:34:50;;;;;;;1116.47;988.10;;;-0.70;99.90;;;;;;6243436;22;20047;-81
2023/12/02 04:37:17;;;;;;;1113.03;987.58;;;-1.60;99.90;;;;;;6218649;22;20032;-80
2023/12/02 04:39:43;;;;;;;1166.07;997.33;;;-1.00;99.90;;;;;;6242293;22;20039;-81
2023/12/02 04:42:08;;;;;;;1141.60;993.88;;;-1.70;99.90;;;;;;6243114;22;20031;-80
2023/12/02 04:44:34;;;;;;;1150.28;999.40;;;-1.50;99.90;;;;;;6270896;22;20015;-80
2023/12/02 04:47:00;;;;;;;1079.47;967.95;;;-1.60;99.90;;;;;;6270014;22;20085;-80
2023/12/02 04:49:26;;;;;;;1127.15;981.30;;;-1.30;99.90;;;;;;6243625;22;20046;-80
2023/12/02 04:51:52;;;;;;;1033.63;930.65;;;-1.70;99.90;;;;;;6243500;22;20432;-80
2023/12/02 04:54:19;;;;;;;1068.95;954.97;;;-1.70;99.90;;;;;;6242827;22;20023;-81
2023/12/02 04:56:45;;;;;;;1116.93;980.95;;;-1.70;99.90;;;;;;6243562;22;20059;-80
2023/12/02 04:59:11;;;;;;;1027.22;922.80;;;-1.10;99.90;;;;;;6242347;22;20014;-80
2023/12/02 05:01:37;;;;;;;970.20;878.00;;;-1.50;99.90;;;;;;6242784;22;20027;-80
2023/12/02 05:04:03;;;;;;;1052.10;942.28;;;-1.30;99.90;;;;;;6218151;22;20340;-81
2023/12/02 05:06:29;;;;;;;1200.43;999.85;;;-0.80;99.90;;;;;;6243817;22;20015;-80
2023/12/02 05:08:54;;;;;;;1307.28;999.90;;;-0.70;99.90;;;;;;6270325;22;20570;-81
2023/12/02 05:11:21;;;;;;;1326.75;999.90;;;-0.70;99.90;;;;;;6243118;22;20020;-81
2023/12/02 05:13:47;;;;;;;1298.75;999.90;;;-1.60;99.90;;;;;;6242644;22;20549;-80
2023/12/02 05:16:14;;;;;;;1031.25;928.30;;;-0.90;99.90;;;;;;6242862;22;20455;-81
2023/12/02 05:18:40;;;;;;;1023.20;921.60;;;-0.60;99.90;;;;;;6243462;22;20095;-81
2023/12/02 05:21:07;;;;;;;999.42;902.55;;;-1.80;99.90;;;;;;6242674;22;20015;-81
2023/12/02 05:23:32;;;;;;;1064.38;952.15;;;-1.90;99.90;;;;;;6243797;22;20102;-81
2023/12/02 05:25:58;;;;;;;1323.18;999.67;;;-1.90;99.90;;;;;;6244033;22;20043;-81
2023/12/02 05:28:24;;;;;;;1051.60;936.80;;;-1.30;99.90;;;;;;6241308;22;20039;-81
2023/12/02 05:30:50;;;;;;;1117.55;976.42;;;-1.60;99.90;;;;;;6271076;22;20091;-81
2023/12/02 05:33:17;;;;;;;1276.72;998.08;;;-2.00;99.90;;;;;;6243195;22;20055;-81
2023/12/02 05:35:43;;;;;;;1299.32;999.90;;;-1.00;99.90;;;;;;6243421;22;20022;-81
2023/12/02 05:38:09;;;;;;;1070.38;955.95;;;-1.10;99.90;;;;;;6245774;22;20643;-81
2023/12/02 05:40:35;;;;;;;1257.95;999.90;;;-1.90;99.90;;;;;;6272770;22;20020;-81
2023/12/02 05:43:00;;;;;;;1215.88;999.90;;;-1.60;99.90;;;;;;6243836;22;20339;-81
2023/12/02 05:45:26;;;;;;;1175.40;999.70;;;-1.80;99.90;;;;;;6244814;22;20012;-81
2023/12/02 05:47:52;;;;;;;1276.10;999.90;;;-1.00;99.90;;;;;;6245526;22;20084;-80
2023/12/02 05:50:18;;;;;;;1301.28;999.90;;;-1.60;99.90;;;;;;6272483;22;20022;-80
2023/12/02 05:52:43;;;;;;;1266.20;999.90;;;-1.50;99.90;;;;;;6244824;22;20586;-81
2023/12/02 05:55:09;;;;;;;1197.15;996.80;;;-1.80;99.90;;;;;;6245725;22;20016;-81
2023/12/02 05:57:35;;;;;;;1094.82;971.30;;;-2.10;99.90;;;;;;6242835;22;20016;-80
2023/12/02 06:00:01;;;;;;;1130.40;988.13;;;-2.10;99.90;;;;;;6245881;22;20019;-81
2023/12/02 06:02:26;;;;;;;1038.70;934.70;;;-2.10;99.90;;;;;;6245219;22;20097;-80
2023/12/02 06:04:52;;;;;;;1050.47;944.13;;;-1.90;99.90;;;;;;6244535;22;20023;-80
2023/12/02 06:07:18;;;;;;;1115.28;986.33;;;-1.10;99.90;;;;;;6245343;22;20020;-81
2023/12/02 06:09:43;;;;;;;1324.68;999.90;;;-1.20;99.90;;;;;;6245283;22;20027;-81
2023/12/02 06:12:10;;;;;;;1387.82;999.90;;;-2.10;99.90;;;;;;6271006;22;20632;-80
2023/12/02 06:14:35;;;;;;;1204.70;999.90;;;-2.20;99.90;;;;;;6245235;22;20023;-81
2023/12/02 06:17:03;;;;;;;1331.03;999.90;;;-2.20;99.90;;;;;;6272444;22;20384;-81
2023/12/02 06:19:29;;;;;;;1116.20;987.17;;;-2.10;99.90;;;;;;6244529;22;20042;-81
2023/12/02 06:21:54;;;;;;;1225.72;999.42;;;-1.10;99.90;;;;;;6244896;22;20086;-81
2023/12/02 06:24:21;;;;;;;1343.53;999.90;;;-2.20;99.90;;;;;;6244614;22;20070;-81
2023/12/02 06:26:46;;;;;;;1494.93;999.90;;;-2.20;99.90;;;;;;6244804;22;20032;-81
2023/12/02 06:29:12;;;;;;;1437.53;999.90;;;-1.60;99.90;;;;;;6270906;22;20467;-81
2023/12/02 06:31:38;;;;;;;1181.07;997.85;;;-2.10;99.90;;;;;;6244036;22;20054;-81
2023/12/02 06:34:04;;;;;;;1272.43;998.17;;;-2.10;99.90;;;;;;6244833;22;20024;-81
2023/12/02 06:36:30;;;;;;;1383.57;999.90;;;-2.10;99.90;;;;;;6244910;22;20015;-81
2023/12/02 06:38:56;;;;;;;1416.72;999.90;;;-1.50;99.90;;;;;;6244185;22;20019;-81
2023/12/02 06:41:22;;;;;;;1384.53;999.90;;;-1.00;99.90;;;;;;6244713;22;20085;-81
2023/12/02 06:43:48;;;;;;;1460.82;999.90;;;-1.30;99.90;;;;;;6271578;22;20360;-81
2023/12/02 06:46:23;;;;;;;1161.88;993.35;;;-0.90;99.90;;;;;;6243777;22;20026;-81
2023/12/02 06:48:50;;;;;;;1629.65;999.90;;;-1.30;99.90;;;;;;6271606;22;20015;-81
2023/12/02 06:51:16;;;;;;;1351.72;999.90;;;-0.70;99.90;;;;;;6244533;22;20016;-81
2023/12/02 06:53:42;;;;;;;1571.18;999.90;;;-1.60;99.90;;;;;;6244022;22;20023;-81
2023/12/02 06:56:21;;;;;;;1651.85;999.90;;;-1.90;99.90;;;;;;6244665;22;20157;-81
2023/12/02 06:58:49;;;;;;;1359.93;999.90;;;-1.80;99.90;;;;;;6270695;22;20016;-81
2023/12/02 07:01:26;;;;;;;1217.10;997.42;;;-1.30;99.90;;;;;;6244217;22;20043;-81
2023/12/02 07:03:54;;;;;;;1189.15;994.90;;;-1.80;99.90;;;;;;6268022;22;20375;-81
2023/12/02 07:06:20;;;;;;;1206.15;998.28;;;-1.70;99.90;;;;;;6271990;22;20019;-81
2023/12/02 07:08:47;;;;;;;1410.47;999.90;;;-1.80;99.90;;;;;;6217073;22;20459;-81
2023/12/02 07:11:13;;;;;;;1178.22;999.08;;;-1.60;99.90;;;;;;6244511;22;20313;-81
2023/12/02 07:13:39;;;;;;;1135.13;995.63;;;-1.80;99.90;;;;;;6241640;22;20024;-81
2023/12/02 07:16:05;;;;;;;1114.43;986.35;;;-0.70;99.90;;;;;;6271307;22;20011;-81
2023/12/02 07:18:31;;;;;;;1156.32;999.15;;;-1.70;99.90;;;;;;6243824;22;20394;-82
2023/12/02 07:20:57;;;;;;;1295.95;999.90;;;-1.20;99.90;;;;;;6270028;22;20104;-81
2023/12/02 07:23:25;;;;;;;1258.07;999.90;;;-1.70;99.90;;;;;;6271125;22;20099;-81
2023/12/02 07:25:51;;;;;;;1479.28;999.90;;;-1.70;99.90;;;;;;6243851;22;20008;-81
2023/12/02 07:28:17;;;;;;;1373.10;999.90;;;-0.50;99.90;;;;;;6268738;22;20026;-81
2023/12/02 07:30:43;;;;;;;1177.97;998.35;;;-1.50;99.90;;;;;;6242162;22;20359;-81
2023/12/02 07:33:09;;;;;;;1254.95;999.90;;;-0.90;99.90;;;;;;6241385;22;20034;-81
2023/12/02 07:35:34;;;;;;;1116.22;988.03;;;-1.20;99.90;;;;;;6269442;22;20015;-84
2023/12/02 07:38:00;;;;;;;1365.38;999.90;;;-1.70;99.90;;;;;;6242700;22;20072;-81
2023/12/02 07:40:26;;;;;;;1192.82;998.67;;;-0.50;99.90;;;;;;6268891;22;20020;-82
2023/12/02 07:42:52;;;;;;;1161.57;994.55;;;-1.70;99.90;;;;;;6268706;22;20344;-81
2023/12/02 07:45:17;;;;;;;1493.13;999.90;;;-0.90;99.90;;;;;;6242938;22;20483;-81
2023/12/02 07:47:43;;;;;;;1239.28;999.90;;;-1.00;99.90;;;;;;6242729;22;20054;-81
2023/12/02 07:50:09;;;;;;;1383.93;999.90;;;-0.80;99.90;;;;;;6241848;22;20027;-81
2023/12/02 07:52:35;;;;;;;1110.45;989.67;;;-1.70;99.90;;;;;;6270649;22;20011;-81
2023/12/02 07:55:00;;;;;;;1149.90;994.80;;;-1.30;99.90;;;;;;6243327;22;20394;-81
2023/12/02 07:57:26;;;;;;;1125.75;993.35;;;-0.90;99.90;;;;;;6267613;22;20031;-80
2023/12/02 07:59:52;;;;;;;1072.80;961.03;;;-1.20;99.90;;;;;;6270761;22;20008;-80
2023/12/02 08:02:18;;;;;;;1272.72;999.90;;;-1.70;99.90;;;;;;6242708;22;20432;-80
2023/12/02 08:04:43;;;;;;;1389.45;999.90;;;-0.50;99.90;;;;;;6217087;22;20016;-80
2023/12/02 08:07:09;;;;;;;1345.00;999.90;;;-0.50;99.90;;;;;;6218043;22;20019;-81
2023/12/02 08:09:35;;;;;;;1383.28;999.90;;;-1.00;99.90;;;;;;6270123;22;20019;-80
2023/12/02 08:12:01;;;;;;;1165.68;992.78;;;-1.40;99.90;;;;;;6241602;22;20103;-80
2023/12/02 08:14:27;;;;;;;1060.38;952.72;;;-1.60;99.90;;;;;;6241735;22;20027;-81
2023/12/02 08:16:52;;;;;;;1110.65;983.25;;;-1.30;99.90;;;;;;6269574;22;20024;-81
2023/12/02 08:19:18;;;;;;;1182.53;999.90;;;-0.60;99.90;;;;;;6270652;22;20022;-81
2023/12/02 08:21:44;;;;;;;1179.60;999.90;;;-0.80;99.90;;;;;;6242900;22;20035;-81
2023/12/02 08:24:09;;;;;;;1319.38;999.90;;;-0.40;99.90;;;;;;6242708;22;20046;-81
2023/12/02 08:26:35;;;;;;;1173.93;999.78;;;-0.20;99.90;;;;;;6243418;22;20051;-81
2023/12/02 08:29:01;;;;;;;1153.90;994.38;;;-1.10;99.90;;;;;;6242024;22;20015;-79
2023/12/02 08:31:26;;;;;;;1204.32;999.20;;;-0.40;99.90;;;;;;6242295;22;20019;-79
2023/12/02 08:33:52;;;;;;;1114.22;989.90;;;-1.00;99.90;;;;;;6242332;22;20023;-79
2023/12/02 08:36:18;;;;;;;1110.65;982.67;;;-0.80;99.90;;;;;;6243102;22;20037;-82
2023/12/02 08:38:44;;;;;;;1077.93;966.10;;;-0.80;99.90;;;;;;6242347;22;20019;-78
2023/12/02 08:41:11;;;;;;;1131.90;993.97;;;-1.10;99.90;;;;;;6270114;22;20014;-80
2023/12/02 08:43:37;;;;;;;1180.15;999.90;;;-0.70;99.90;;;;;;6268936;22;20339;-81
2023/12/02 08:46:02;;;;;;;1128.68;997.03;;;-1.10;99.90;;;;;;6268980;22;20069;-79
2023/12/02 08:48:28;;;;;;;1032.47;930.80;;;-1.40;99.90;;;;;;6242601;22;20064;-79
2023/12/02 08:50:54;;;;;;;1001.35;905.65;;;-0.90;99.90;;;;;;6269783;22;20073;-79
2023/12/02 08:53:20;;;;;;;951.08;865.15;;;-1.30;99.90;;;;;;6242063;22;20073;-79
2023/12/02 08:55:46;;;;;;;1018.03;918.45;;;-1.30;99.90;;;;;;6242400;22;20024;-79
2023/12/02 08:58:12;;;;;;;1093.68;979.05;;;-0.60;99.90;;;;;;6241481;22;20030;-79
2023/12/02 09:00:37;;;;;;;988.50;896.33;;;-0.70;99.90;;;;;;6241546;22;20069;-79
2023/12/02 09:03:04;;;;;;;966.38;877.60;;;-1.10;99.90;;;;;;6270158;22;20022;-79
2023/12/02 09:05:30;;;;;;;1049.78;947.08;;;-0.70;99.90;;;;;;6216841;22;20068;-79
2023/12/02 09:07:59;;;;;;;1082.00;968.47;;;-0.30;99.90;;;;;;6241863;22;20015;-79
2023/12/02 09:10:25;;;;;;;1026.03;926.15;;;-1.20;99.90;;;;;;6242389;22;20507;-79
2023/12/02 09:12:51;;;;;;;1017.63;918.75;;;-0.60;99.90;;;;;;6269200;22;20038;-78
2023/12/02 09:15:17;;;;;;;988.72;895.22;;;-0.40;99.90;;;;;;6241228;22;20448;-79
2023/12/02 09:18:05;;;;;;;965.30;875.35;;;-0.60;99.90;;;;;;6242194;22;20016;-79
2023/12/02 09:20:31;;;;;;;1066.63;957.00;;;-1.00;99.90;;;;;;6269008;22;20117;-80
2023/12/02 09:23:01;;;;;;;1016.45;918.83;;;0.00;99.90;;;;;;6269559;22;20432;-79
2023/12/02 09:25:28;;;;;;;1091.65;974.92;;;0.00;99.90;;;;;;6242308;22;20027;-78
2023/12/02 09:28:17;;;;;;;1098.25;982.80;;;-0.50;99.90;;;;;;6226620;23;20017;-79
2023/12/02 09:31:04;;;;;;;1077.43;965.10;;;-0.70;99.90;;;;;;6208677;23;20017;-78
2023/12/02 09:33:31;;;;;;;1095.68;979.20;;;-0.60;99.90;;;;;;6207025;23;20036;-79
2023/12/02 09:35:59;;;;;;;956.28;870.67;;;-0.60;99.90;;;;;;6212898;23;20016;-79
2023/12/02 09:38:26;;;;;;;1005.80;914.63;;;-0.50;99.90;;;;;;6214016;23;20020;-80
2023/12/02 09:41:14;;;;;;;935.75;853.70;;;0.30;99.90;;;;;;6207614;23;20005;-79
2023/12/02 09:43:53;;;;;;;1040.88;936.35;;;-0.40;99.90;;;;;;6205208;23;20020;-79
2023/12/02 09:46:26;;;;;;;1039.88;937.40;;;-0.30;99.90;;;;;;6181662;23;20021;-81
2023/12/02 09:49:17;;;;;;;1008.50;914.30;;;-0.10;99.90;;;;;;6206305;23;20028;-81
2023/12/02 09:51:47;;;;;;;1055.75;951.28;;;0.50;99.90;;;;;;6208086;23;20338;-81
2023/12/02 09:54:24;;;;;;;881.30;809.63;;;0.60;99.90;;;;;;6207110;23;20024;-81
2023/12/02 09:57:03;;;;;;;873.65;801.08;;;-0.10;99.90;;;;;;6207736;23;20021;-81
2023/12/02 09:59:46;;;;;;;971.40;883.97;;;-0.10;99.90;;;;;;6205745;23;20341;-80
2023/12/02 10:02:31;;;;;;;896.17;820.60;;;0.00;99.90;;;;;;6206914;23;20056;-79
2023/12/02 10:05:10;;;;;;;877.25;805.53;;;0.10;99.90;;;;;;6207118;23;20059;-79
2023/12/02 10:07:52;;;;;;;946.72;861.92;;;0.10;99.90;;;;;;6208598;23;20035;-79
2023/12/02 10:10:25;;;;;;;870.40;799.90;;;0.50;99.90;;;;;;6208293;23;20285;-80
2023/12/02 10:12:59;;;;;;;873.20;802.95;;;0.40;99.90;;;;;;6207161;23;20440;-79
2023/12/02 10:15:28;;;;;;;897.38;824.45;;;0.40;99.90;;;;;;6207584;23;20528;-79
2023/12/02 10:18:08;;;;;;;866.28;796.00;;;0.70;99.90;;;;;;6205460;23;20050;-79
2023/12/02 10:20:35;;;;;;;856.80;788.13;;;0.40;99.90;;;;;;6206739;23;20115;-79
2023/12/02 10:23:17;;;;;;;865.28;795.47;;;0.70;99.90;;;;;;6208285;23;20354;-79
2023/12/02 10:25:53;;;;;;;880.40;807.30;;;0.50;99.90;;;;;;6207903;23;20017;-80
2023/12/02 10:28:24;;;;;;;867.85;797.45;;;0.50;99.90;;;;;;6236111;22;20042;-80
2023/12/02 10:30:51;;;;;;;862.45;792.95;;;0.60;99.90;;;;;;6218181;22;20024;-79
2023/12/02 10:33:28;;;;;;;898.28;823.92;;;0.90;99.90;;;;;;6243991;22;20031;-79
2023/12/02 10:36:01;;;;;;;880.05;808.30;;;0.70;99.90;;;;;;6272440;22;20008;-80
2023/12/02 10:38:35;;;;;;;876.45;804.88;;;0.80;99.90;;;;;;6217092;22;20326;-79
2023/12/02 10:41:12;;;;;;;875.22;804.38;;;0.80;99.90;;;;;;6242773;22;20055;-80
2023/12/02 10:43:41;;;;;;;851.63;783.67;;;1.00;99.90;;;;;;6241704;22;20023;-80
2023/12/02 10:46:08;;;;;;;843.33;775.90;;;1.00;99.90;;;;;;6270892;22;20016;-79
2023/12/02 10:48:36;;;;;;;882.00;811.03;;;1.00;99.90;;;;;;6243263;22;20019;-79
2023/12/02 10:51:03;;;;;;;823.88;759.03;;;1.20;99.90;;;;;;6271282;22;20383;-79
2023/12/02 10:53:32;;;;;;;847.20;780.25;;;1.10;99.90;;;;;;6269837;22;20016;-80
2023/12/02 10:56:05;;;;;;;823.42;758.35;;;1.30;99.90;;;;;;6271904;22;20339;-80
2023/12/02 10:58:32;;;;;;;855.43;786.77;;;1.20;99.90;;;;;;6242567;22;20019;-80
2023/12/02 11:01:05;;;;;;;838.65;771.13;;;1.20;99.90;;;;;;6243655;22;20250;-80
2023/12/02 11:03:38;;;;;;;837.15;770.53;;;1.50;99.90;;;;;;6271205;22;20015;-80
2023/12/02 11:06:08;;;;;;;811.00;747.72;;;1.30;99.90;;;;;;6242700;22;20011;-80
2023/12/02 11:08:48;;;;;;;776.17;717.17;;;1.30;99.90;;;;;;6243563;22;20077;-80
2023/12/02 11:11:27;;;;;;;799.40;736.97;;;1.30;99.90;;;;;;6270560;22;20016;-81
2023/12/02 11:13:57;;;;;;;797.60;736.42;;;1.60;99.90;;;;;;6241856;22;20371;-81
2023/12/02 11:16:32;;;;;;;859.78;791.33;;;1.30;99.90;;;;;;6218369;22;20016;-80
2023/12/02 11:19:18;;;;;;;783.47;723.92;;;1.80;99.90;;;;;;6271339;22;20012;-81
2023/12/02 11:21:54;;;;;;;819.95;755.28;;;1.40;99.90;;;;;;6242194;22;20023;-81
2023/12/02 11:24:34;;;;;;;741.35;686.08;;;1.50;99.90;;;;;;6244012;22;20066;-81
2023/12/02 11:27:12;;;;;;;724.97;670.33;;;1.50;99.90;;;;;;6242314;22;20024;-82
2023/12/02 11:29:56;;;;;;;713.47;660.25;;;1.60;99.90;;;;;;6217685;22;20019;-81
2023/12/02 11:32:38;;;;;;;727.17;672.65;;;1.70;99.90;;;;;;6243118;22;20098;-81
2023/12/02 11:35:16;;;;;;;721.03;667.40;;;1.70;99.90;;;;;;6242657;22;20019;-81
2023/12/02 11:37:45;;;;;;;726.08;671.40;;;1.70;99.90;;;;;;6217859;22;20246;-80
2023/12/02 11:40:24;;;;;;;739.20;683.28;;;1.80;99.90;;;;;;6218525;22;20095;-81
2023/12/02 11:42:56;;;;;;;769.83;711.55;;;1.90;99.90;;;;;;6269079;22;20043;-81
2023/12/02 11:45:32;;;;;;;675.85;625.85;;;1.90;99.90;;;;;;6270958;22;20095;-81
2023/12/02 11:48:11;;;;;;;640.72;593.83;;;1.90;99.90;;;;;;6242030;22;20030;-81
2023/12/02 11:50:55;;;;;;;566.10;525.38;;;2.00;99.90;;;;;;6270247;22;20020;-81
2023/12/02 11:53:48;;;;;;;470.15;438.95;;;2.00;99.90;;;;;;6242764;22;20061;-79
2023/12/02 11:56:21;;;;;;;347.85;326.15;;;2.00;99.90;;;;;;6242959;22;20019;-79
2023/12/02 11:58:55;;;;;;;351.33;329.33;;;2.30;99.90;;;;;;6269122;22;20012;-78
2023/12/02 12:01:24;;;;;;;473.98;442.83;;;2.00;99.90;;;;;;6270435;22;20016;-79
2023/12/02 12:04:16;;;;;;;419.73;393.25;;;1.90;99.90;;;;;;6241952;22;20026;-79
2023/12/02 12:07:09;;;;;;;254.80;239.52;;;1.90;99.90;;;;;;6242886;22;20024;-78
2023/12/02 12:09:43;;;;;;;213.83;201.27;;;1.90;99.90;;;;;;6241214;22;20379;-79